This is the latest recevied weather packets stored in our database for station/object N0NAI-13. If no packets are shown the sender has not sent any weather packets the latest 10 day(s).
| Time | Temp. | Humidity | Pressure | Rain* | Wind** | Luminosity | Snow |
|---|---|---|---|---|---|---|---|
| 1777347923 | 9.44° C | 99% | 1006.1 hPa | 0 mm | - | - | - |
| 1777347326 | 9.44° C | 99% | 1006 hPa | 0 mm | - | - | - |
| 1777346729 | 9.44° C | 99% | 1006 hPa | 0 mm | - | - | - |
| 1777346126 | 9.44° C | 99% | 1005.6 hPa | 0 mm | - | - | - |
| 1777345517 | 9.44° C | 99% | 1005.4 hPa | 0 mm | - | - | - |
| 1777344920 | 9.44° C | 99% | 1005.2 hPa | 0 mm | - | - | - |
| 1777343725 | 9.44° C | 99% | 1004.6 hPa | 0 mm | - | - | - |
| 1777343129 | 9.44° C | 99% | 1004.3 hPa | 0 mm | - | - | - |
| 1777342531 | 10° C | 99% | 1004 hPa | 0 mm | - | - | - |
| 1777341916 | 10° C | 99% | 1003.6 hPa | 0 mm | - | - | - |
| 1777341319 | 10° C | 99% | 1003.5 hPa | 0 mm | - | - | - |
| 1777340722 | 10° C | 99% | 1003.3 hPa | 0 mm | - | - | - |
| 1777340125 | 10.56° C | 99% | 1003.2 hPa | 0 mm | - | - | - |
| 1777339528 | 10.56° C | 99% | 1003.1 hPa | 0 mm | - | - | - |
| 1777338930 | 11.11° C | 99% | 1003 hPa | 0 mm | - | - | - |
| 1777338333 | 11.11° C | 99% | 1002.9 hPa | 0 mm | - | - | - |
| 1777337120 | 12.22° C | 99% | 1002.5 hPa | 0 mm | - | - | - |
| 1777332917 | 16.67° C | 99% | 1000.9 hPa | 0 mm | - | - | - |
| 1777332326 | 17.22° C | 99% | 1000.9 hPa | 0.51 mm | - | - | - |
| 1777331729 | 17.78° C | 99% | 1000.5 hPa | 0.76 mm | - | - | - |
| 1777329323 | 16.11° C | 99% | 1000 hPa | 0.76 mm | - | - | - |
| 1777313724 | 15° C | 99% | 1001.1 hPa | 0.25 mm | - | - | - |
| 1777313127 | 15° C | 99% | 1001.4 hPa | 0.25 mm | - | - | - |
| 1777311318 | 15° C | 99% | 1001.4 hPa | 0.25 mm | - | - | - |
| 1777310721 | 15° C | 99% | 1001.6 hPa | 0.25 mm | - | - | - |
* Rain latest hour (hover to see other rain measurements)
** Current wind speed in m/s (hover to see current wind gust speed)